Time;durP1;ratioP1;P1;durP2;ratioP2;P2;SDS_P1;SDS_P2;PMS_P1;PMS_P2;Temp;Humidity;BMP_temperature;BMP_pressure;BME280_temperature;BME280_humidity;BME280_pressure;Samples;Min_cycle;Max_cycle;Signal;HPM_P1;HPM_P2
2023/12/03 00:01:42;;;;;;;22.53;12.80;;;1.40;4.10;;;;;;5108979;28;20533;-82
2023/12/03 00:04:08;;;;;;;26.83;14.43;;;1.40;12.00;;;;;;5113608;28;20994;-80
2023/12/03 00:06:35;;;;;;;30.33;14.93;;;1.50;13.00;;;;;;5102421;28;20485;-82
2023/12/03 00:09:02;;;;;;;26.50;12.50;;;1.60;9.40;;;;;;5109257;28;20461;-81
2023/12/03 00:11:29;;;;;;;27.87;13.30;;;1.60;1.00;;;;;;5114994;28;20915;-82
2023/12/03 00:13:57;;;;;;;23.33;11.83;;;1.60;1.50;;;;;;5112909;28;20548;-81
2023/12/03 00:16:24;;;;;;;23.23;13.60;;;1.60;1.00;;;;;;5108117;28;20499;-80
2023/12/03 00:18:51;;;;;;;22.77;13.47;;;1.70;1.00;;;;;;5104745;28;20461;-80
2023/12/03 00:21:18;;;;;;;23.53;11.97;;;1.70;1.80;;;;;;5114392;28;20520;-78
2023/12/03 00:23:45;;;;;;;25.37;15.13;;;1.70;1.40;;;;;;5115008;28;20542;-80
2023/12/03 00:26:11;;;;;;;26.13;14.00;;;1.60;5.30;;;;;;5111712;28;20447;-82
2023/12/03 00:28:38;;;;;;;26.70;15.13;;;1.70;5.50;;;;;;5110763;28;20560;-80
2023/12/03 00:31:07;;;;;;;25.70;14.40;;;1.70;4.60;;;;;;5118833;28;20529;-82
2023/12/03 00:33:34;;;;;;;23.07;13.40;;;1.70;1.00;;;;;;5106231;28;20519;-82
2023/12/03 00:36:01;;;;;;;23.80;14.37;;;1.60;1.30;;;;;;5110394;28;20454;-80
2023/12/03 00:38:28;;;;;;;30.13;14.10;;;1.60;1.10;;;;;;5107715;28;20541;-81
2023/12/03 00:40:54;;;;;;;30.30;14.43;;;1.60;3.40;;;;;;5117426;28;20445;-79
2023/12/03 00:43:21;;;;;;;27.63;13.90;;;1.60;9.80;;;;;;5096997;28;20458;-81
2023/12/03 00:45:49;;;;;;;25.03;13.67;;;1.60;6.70;;;;;;5113966;28;20544;-81
2023/12/03 00:48:18;;;;;;;24.87;14.13;;;1.40;6.70;;;;;;5102416;28;20474;-81
2023/12/03 00:50:45;;;;;;;23.42;14.35;;;1.50;15.40;;;;;;5118855;28;20949;-83
2023/12/03 00:53:11;;;;;;;28.60;16.20;;;1.60;14.70;;;;;;5120076;28;20286;-81
2023/12/03 00:55:38;;;;;;;25.20;13.50;;;1.50;4.20;;;;;;5118522;28;20544;-82
2023/12/03 00:58:05;;;;;;;27.67;13.20;;;1.50;5.70;;;;;;5117175;28;20497;-82
2023/12/03 01:00:32;;;;;;;25.47;15.53;;;1.50;22.80;;;;;;5119020;28;20454;-82
2023/12/03 01:02:59;;;;;;;27.17;13.50;;;1.60;20.60;;;;;;5108867;28;20454;-81
2023/12/03 01:05:27;;;;;;;23.90;14.53;;;1.70;12.60;;;;;;5113397;28;20457;-80
2023/12/03 01:07:54;;;;;;;22.60;13.70;;;1.60;3.20;;;;;;5115628;28;20476;-81
2023/12/03 01:10:21;;;;;;;27.63;13.00;;;1.50;1.00;;;;;;5107394;28;20506;-81
2023/12/03 01:12:47;;;;;;;22.47;13.87;;;1.60;9.80;;;;;;5111357;28;20450;-82
2023/12/03 01:15:14;;;;;;;28.80;14.20;;;1.60;1.00;;;;;;5118795;28;20448;-82
2023/12/03 01:17:41;;;;;;;24.67;12.50;;;1.60;1.00;;;;;;5110088;28;20513;-82
2023/12/03 01:20:09;;;;;;;25.60;15.10;;;1.50;8.30;;;;;;5117181;28;20432;-84
2023/12/03 01:22:37;;;;;;;28.27;14.77;;;1.30;15.80;;;;;;5107233;28;20468;-83
2023/12/03 01:25:04;;;;;;;28.27;13.53;;;1.40;33.40;;;;;;5108098;28;20460;-81
2023/12/03 01:27:31;;;;;;;26.57;15.80;;;1.40;32.50;;;;;;5111155;28;20572;-81
2023/12/03 01:29:58;;;;;;;22.13;12.70;;;1.30;39.60;;;;;;5108281;28;20454;-81
2023/12/03 01:32:25;;;;;;;22.03;12.77;;;1.30;37.40;;;;;;5110745;28;20461;-79
2023/12/03 01:34:52;;;;;;;31.80;14.67;;;1.30;35.70;;;;;;5111528;28;20457;-78
2023/12/03 01:37:19;;;;;;;26.87;15.47;;;1.40;34.90;;;;;;5109604;28;20492;-79
2023/12/03 01:39:47;;;;;;;28.20;15.37;;;1.40;30.90;;;;;;5113513;28;20482;-83
2023/12/03 01:42:14;;;;;;;28.77;15.70;;;1.50;28.10;;;;;;5118231;28;20842;-82
2023/12/03 01:44:41;;;;;;;26.03;16.00;;;1.50;27.60;;;;;;5118576;28;20467;-81
2023/12/03 01:47:08;;;;;;;31.20;16.60;;;1.40;37.60;;;;;;5117611;28;20465;-83
2023/12/03 01:49:34;;;;;;;34.10;17.43;;;1.50;59.60;;;;;;5111700;28;20457;-84
2023/12/03 01:52:02;;;;;;;34.07;17.60;;;1.50;50.80;;;;;;5101148;28;20465;-82
2023/12/03 01:54:34;;;;;;;35.00;17.37;;;1.50;65.80;;;;;;5097884;28;20546;-82
2023/12/03 01:57:03;;;;;;;38.57;17.40;;;1.40;79.90;;;;;;5114168;28;20487;-83
2023/12/03 01:59:31;;;;;;;28.17;15.70;;;1.50;76.40;;;;;;5108609;28;20549;-83
2023/12/03 02:01:58;;;;;;;32.03;15.27;;;1.50;93.60;;;;;;5114200;28;20467;-82
2023/12/03 02:04:25;;;;;;;34.37;17.90;;;1.50;88.40;;;;;;5094268;28;20491;-83
2023/12/03 02:06:52;;;;;;;27.07;16.30;;;1.60;75.10;;;;;;5094571;28;20476;-80
2023/12/03 02:09:19;;;;;;;32.40;16.10;;;1.70;71.40;;;;;;5114123;28;20461;-82
2023/12/03 02:11:46;;;;;;;27.50;15.70;;;1.70;80.40;;;;;;5111660;28;20475;-83
2023/12/03 02:14:15;;;;;;;29.20;16.70;;;1.80;75.30;;;;;;5117235;28;20465;-83
2023/12/03 02:16:45;;;;;;;31.70;14.33;;;1.70;84.00;;;;;;5118126;28;20483;-83
2023/12/03 02:19:12;;;;;;;34.43;17.07;;;1.90;59.90;;;;;;5117037;28;20440;-83
2023/12/03 02:21:39;;;;;;;25.77;15.30;;;2.00;55.00;;;;;;5107120;28;20451;-82
2023/12/03 02:24:08;;;;;;;26.97;16.93;;;2.00;39.70;;;;;;5116337;28;20914;-83
2023/12/03 02:26:35;;;;;;;30.10;17.20;;;1.90;59.90;;;;;;5114545;28;20544;-82
2023/12/03 02:29:01;;;;;;;28.17;16.80;;;2.00;50.90;;;;;;5110819;28;20466;-83
2023/12/03 02:31:30;;;;;;;27.33;15.23;;;1.90;38.60;;;;;;5114823;28;20941;-81
2023/12/03 02:34:03;;;;;;;31.27;16.47;;;2.00;49.40;;;;;;5103810;28;20984;-82
2023/12/03 02:36:30;;;;;;;33.23;16.20;;;2.00;61.30;;;;;;5115093;28;20549;-82
2023/12/03 02:38:57;;;;;;;34.70;16.93;;;2.10;54.90;;;;;;5109240;28;20477;-82
2023/12/03 02:41:25;;;;;;;45.73;19.67;;;2.10;52.80;;;;;;5115545;28;20475;-83
2023/12/03 02:43:52;;;;;;;32.83;16.53;;;1.90;75.80;;;;;;5119794;28;20450;-83
2023/12/03 02:46:18;;;;;;;36.63;17.10;;;2.00;72.60;;;;;;5121771;28;20449;-82
2023/12/03 02:48:45;;;;;;;37.73;19.47;;;1.90;92.90;;;;;;5113770;28;20472;-83
2023/12/03 02:51:12;;;;;;;39.03;20.53;;;1.90;95.90;;;;;;5100669;28;20453;-83
2023/12/03 02:53:39;;;;;;;31.30;17.37;;;1.90;99.90;;;;;;5101158;28;20435;-83
2023/12/03 02:56:07;;;;;;;32.53;16.23;;;1.90;99.90;;;;;;5101188;28;20463;-83
2023/12/03 02:58:35;;;;;;;32.27;16.73;;;1.90;99.90;;;;;;5100932;28;20494;-83
2023/12/03 03:01:02;;;;;;;37.57;20.27;;;1.80;99.90;;;;;;5102018;28;20446;-82
2023/12/03 03:03:29;;;;;;;30.93;15.40;;;1.80;99.90;;;;;;5119355;28;20427;-83
2023/12/03 03:05:55;;;;;;;37.77;18.63;;;1.80;99.90;;;;;;5120951;28;20453;-83
2023/12/03 03:08:22;;;;;;;31.53;15.97;;;1.70;99.90;;;;;;5121364;28;20555;-83
2023/12/03 03:10:49;;;;;;;36.90;17.53;;;1.80;99.90;;;;;;5111772;28;20449;-81
2023/12/03 03:13:16;;;;;;;28.60;15.87;;;1.90;99.90;;;;;;5114205;28;20449;-82
2023/12/03 03:15:44;;;;;;;34.67;18.03;;;1.90;99.90;;;;;;5120475;28;20537;-82
2023/12/03 03:18:10;;;;;;;36.10;17.40;;;1.90;99.90;;;;;;5113779;28;20572;-82
2023/12/03 03:20:38;;;;;;;30.77;18.07;;;2.10;99.90;;;;;;5117222;28;20846;-83
2023/12/03 03:23:05;;;;;;;38.70;19.50;;;2.00;99.90;;;;;;5113784;28;20457;-83
2023/12/03 03:25:32;;;;;;;30.43;15.83;;;2.00;99.90;;;;;;5120836;28;20651;-81
2023/12/03 03:27:59;;;;;;;33.07;18.13;;;2.10;99.90;;;;;;5111838;28;20479;-82
2023/12/03 03:30:26;;;;;;;33.97;18.37;;;2.10;99.90;;;;;;5107475;28;20463;-83
2023/12/03 03:32:54;;;;;;;28.73;17.10;;;2.20;99.90;;;;;;5107816;28;20984;-80
2023/12/03 03:35:21;;;;;;;35.47;17.83;;;2.20;99.90;;;;;;5116154;28;20453;-80
2023/12/03 03:37:47;;;;;;;33.73;16.40;;;2.20;99.90;;;;;;5115356;28;20537;-81
2023/12/03 03:40:14;;;;;;;30.03;17.47;;;2.20;99.90;;;;;;5108365;28;20458;-81
2023/12/03 03:42:41;;;;;;;34.53;16.30;;;2.20;99.90;;;;;;5109876;28;20446;-81
2023/12/03 03:45:09;;;;;;;35.47;17.90;;;2.30;99.90;;;;;;5124500;28;20453;-83
2023/12/03 03:47:36;;;;;;;30.50;16.27;;;2.10;99.90;;;;;;5114239;28;20467;-83
2023/12/03 03:50:05;;;;;;;35.23;18.63;;;1.90;99.90;;;;;;5119122;28;20449;-82
2023/12/03 03:52:32;;;;;;;25.50;16.23;;;2.00;99.90;;;;;;5118711;28;20457;-82
2023/12/03 03:54:59;;;;;;;32.70;19.77;;;2.10;99.90;;;;;;5092565;28;20458;-81
2023/12/03 03:57:26;;;;;;;27.27;15.80;;;2.20;99.90;;;;;;5115631;28;20488;-80
2023/12/03 03:59:52;;;;;;;36.23;18.43;;;2.20;99.90;;;;;;5113620;28;20441;-79
2023/12/03 04:02:19;;;;;;;30.33;17.27;;;2.10;99.90;;;;;;5116503;28;20450;-83
2023/12/03 04:04:47;;;;;;;31.10;16.47;;;2.20;99.90;;;;;;5113207;28;20446;-80
2023/12/03 04:07:15;;;;;;;35.50;17.50;;;2.20;99.90;;;;;;5102484;28;21067;-81
2023/12/03 04:09:41;;;;;;;28.20;16.10;;;2.10;99.90;;;;;;5114743;28;20465;-81
2023/12/03 04:12:08;;;;;;;29.40;17.70;;;2.20;99.90;;;;;;5103412;28;20464;-80
2023/12/03 04:14:35;;;;;;;30.60;16.83;;;2.20;99.90;;;;;;5111580;28;20449;-81
2023/12/03 04:17:03;;;;;;;36.30;18.60;;;2.20;99.90;;;;;;5109325;28;20451;-81
2023/12/03 04:19:30;;;;;;;28.33;16.30;;;2.20;99.90;;;;;;5114324;28;20457;-81
2023/12/03 04:21:56;;;;;;;30.17;17.47;;;2.10;99.90;;;;;;5109923;28;20446;-80
2023/12/03 04:24:25;;;;;;;27.30;15.63;;;2.20;99.90;;;;;;5112022;28;20457;-81
2023/12/03 04:26:51;;;;;;;33.40;17.67;;;2.20;99.90;;;;;;5102861;28;20467;-80
2023/12/03 04:29:18;;;;;;;31.93;18.03;;;2.10;99.90;;;;;;5109914;28;20459;-82
2023/12/03 04:31:45;;;;;;;30.10;17.23;;;1.90;99.90;;;;;;5103718;28;20456;-80
2023/12/03 04:34:12;;;;;;;28.10;15.40;;;1.90;99.90;;;;;;5109552;28;20463;-81
2023/12/03 04:36:42;;;;;;;31.40;15.10;;;2.00;99.90;;;;;;5109220;28;20489;-80
2023/12/03 04:39:09;;;;;;;34.20;15.90;;;2.10;99.90;;;;;;5114940;28;20493;-81
2023/12/03 04:41:38;;;;;;;32.50;15.20;;;2.10;99.90;;;;;;5111281;28;20461;-81
2023/12/03 04:44:05;;;;;;;29.47;15.13;;;2.00;99.90;;;;;;5115540;28;20829;-82
2023/12/03 04:46:32;;;;;;;27.30;13.67;;;2.10;99.90;;;;;;5115999;28;20446;-82
2023/12/03 04:48:59;;;;;;;24.90;14.70;;;2.10;99.90;;;;;;5114564;28;20635;-82
2023/12/03 04:51:26;;;;;;;24.60;14.60;;;2.10;99.90;;;;;;5118364;28;20453;-82
2023/12/03 04:53:53;;;;;;;22.30;13.13;;;2.10;99.90;;;;;;5110854;28;20454;-81
2023/12/03 04:56:20;;;;;;;28.10;14.13;;;2.10;99.90;;;;;;5117246;28;20865;-80
2023/12/03 04:58:48;;;;;;;27.73;14.40;;;2.10;99.90;;;;;;5112211;28;20481;-81
2023/12/03 05:01:17;;;;;;;24.47;13.47;;;2.10;99.90;;;;;;5113056;28;20681;-82
2023/12/03 05:03:44;;;;;;;24.13;15.00;;;2.10;99.90;;;;;;5103236;28;20453;-81
2023/12/03 05:06:12;;;;;;;25.87;16.50;;;2.10;94.40;;;;;;5109947;28;21168;-82
2023/12/03 05:08:42;;;;;;;25.20;13.30;;;2.10;94.60;;;;;;5117251;28;20470;-82
2023/12/03 05:11:09;;;;;;;23.60;14.63;;;2.20;96.90;;;;;;5113116;28;20457;-80
2023/12/03 05:13:36;;;;;;;23.93;11.77;;;2.20;98.80;;;;;;5113975;28;20644;-82
2023/12/03 05:16:05;;;;;;;27.27;14.23;;;2.20;99.90;;;;;;5112212;28;20449;-80
2023/12/03 05:18:32;;;;;;;25.53;11.90;;;2.20;99.90;;;;;;5106443;28;20492;-81
2023/12/03 05:20:59;;;;;;;24.87;12.80;;;2.10;99.90;;;;;;5113599;28;20823;-81
2023/12/03 05:23:26;;;;;;;27.13;12.93;;;2.00;99.90;;;;;;5096366;28;20446;-81
2023/12/03 05:25:53;;;;;;;25.17;13.10;;;2.10;99.90;;;;;;5103376;28;20552;-81
2023/12/03 05:28:20;;;;;;;23.20;12.87;;;2.10;99.90;;;;;;5103708;28;20496;-81
2023/12/03 05:30:47;;;;;;;24.57;13.50;;;2.10;95.80;;;;;;5078525;28;20454;-80
2023/12/03 05:33:15;;;;;;;20.63;12.60;;;2.20;98.00;;;;;;5097105;28;20444;-81
2023/12/03 05:35:44;;;;;;;25.20;14.23;;;2.20;95.80;;;;;;5103327;28;20451;-81
2023/12/03 05:38:12;;;;;;;21.30;11.70;;;2.20;92.80;;;;;;5123669;28;20497;-82
2023/12/03 05:40:38;;;;;;;20.33;10.83;;;2.20;90.30;;;;;;5123249;28;20457;-81
2023/12/03 05:43:05;;;;;;;19.63;12.33;;;2.30;74.90;;;;;;5126016;28;20465;-79
2023/12/03 05:45:32;;;;;;;21.80;12.63;;;2.20;76.00;;;;;;5123153;28;20509;-80
2023/12/03 05:47:59;;;;;;;21.00;11.47;;;2.20;69.30;;;;;;5131040;28;20485;-80
2023/12/03 05:50:27;;;;;;;23.50;12.13;;;2.10;84.30;;;;;;5125187;28;20463;-83
2023/12/03 05:52:54;;;;;;;19.47;11.00;;;2.10;93.30;;;;;;5116094;28;20479;-82
2023/12/03 05:55:21;;;;;;;21.03;11.57;;;2.20;83.50;;;;;;5117702;28;20419;-83
2023/12/03 05:57:48;;;;;;;19.93;11.63;;;2.10;59.50;;;;;;5113486;28;20492;-82
2023/12/03 06:00:15;;;;;;;18.37;11.47;;;2.10;54.80;;;;;;5109870;28;20464;-80
2023/12/03 06:02:42;;;;;;;23.40;11.50;;;2.20;59.00;;;;;;5103633;28;20545;-83
2023/12/03 06:05:09;;;;;;;22.40;11.10;;;2.10;66.40;;;;;;5105213;28;20458;-80
2023/12/03 06:07:37;;;;;;;18.33;11.10;;;2.10;73.00;;;;;;5113051;28;20543;-81
2023/12/03 06:10:06;;;;;;;19.23;11.23;;;2.20;67.30;;;;;;5106781;28;20465;-79
2023/12/03 06:12:32;;;;;;;26.53;12.30;;;2.10;43.70;;;;;;5104703;28;20529;-80
2023/12/03 06:14:59;;;;;;;19.30;10.03;;;2.20;57.70;;;;;;5105568;28;20458;-80
2023/12/03 06:17:26;;;;;;;18.13;10.83;;;2.20;63.00;;;;;;5111639;28;20476;-82
2023/12/03 06:19:53;;;;;;;20.23;11.90;;;2.20;54.90;;;;;;5106604;28;20494;-79
2023/12/03 06:22:20;;;;;;;21.20;11.07;;;2.10;60.00;;;;;;5099545;28;20454;-81
2023/12/03 06:24:48;;;;;;;19.43;12.00;;;2.20;52.30;;;;;;5116884;28;20526;-81
2023/12/03 06:27:15;;;;;;;17.30;9.37;;;2.10;44.30;;;;;;5108187;28;21607;-81
2023/12/03 06:29:42;;;;;;;20.60;10.67;;;2.20;52.30;;;;;;5114648;28;20441;-81
2023/12/03 06:32:08;;;;;;;17.50;10.20;;;2.20;55.30;;;;;;5112515;28;20453;-80
2023/12/03 06:34:35;;;;;;;15.57;9.40;;;2.20;53.50;;;;;;5103799;28;20906;-80
2023/12/03 06:37:04;;;;;;;19.07;11.30;;;2.30;49.00;;;;;;5111468;28;20463;-81
2023/12/03 06:39:31;;;;;;;19.00;10.47;;;2.30;25.10;;;;;;5108687;28;20484;-81
2023/12/03 06:41:59;;;;;;;16.43;9.70;;;2.40;32.80;;;;;;5110111;28;20856;-80
2023/12/03 06:44:26;;;;;;;19.80;11.10;;;2.30;19.20;;;;;;5111470;28;20452;-80
2023/12/03 06:46:53;;;;;;;17.47;10.30;;;2.30;29.20;;;;;;5111791;28;20536;-81
2023/12/03 06:49:20;;;;;;;17.67;9.77;;;2.30;20.60;;;;;;5106512;28;20540;-81
2023/12/03 06:51:46;;;;;;;17.60;10.37;;;2.40;24.10;;;;;;5111827;28;20949;-81
2023/12/03 06:54:13;;;;;;;19.43;9.20;;;2.30;17.50;;;;;;5113055;28;20839;-80
2023/12/03 06:56:40;;;;;;;19.43;9.83;;;2.30;22.30;;;;;;5111295;28;20455;-79
2023/12/03 06:59:08;;;;;;;21.23;9.53;;;2.30;19.20;;;;;;5110232;28;20925;-81
2023/12/03 07:01:35;;;;;;;18.33;10.73;;;2.30;17.50;;;;;;5112569;28;20453;-81
2023/12/03 07:04:02;;;;;;;19.50;10.47;;;2.30;27.90;;;;;;5113754;28;20445;-81
2023/12/03 07:06:28;;;;;;;18.47;9.80;;;2.30;28.20;;;;;;5111524;28;20453;-79
2023/12/03 07:08:55;;;;;;;18.30;9.80;;;2.30;17.30;;;;;;5110678;28;20466;-80
2023/12/03 07:11:22;;;;;;;14.37;8.07;;;2.30;20.60;;;;;;5111842;28;20460;-82
2023/12/03 07:13:49;;;;;;;19.83;9.20;;;2.30;17.30;;;;;;5113783;28;20458;-81
2023/12/03 07:16:17;;;;;;;20.27;11.70;;;2.40;7.90;;;;;;5096817;28;20544;-80
2023/12/03 07:18:44;;;;;;;21.40;9.47;;;2.40;12.70;;;;;;5097506;28;20974;-81
2023/12/03 07:21:11;;;;;;;14.80;8.50;;;2.40;9.50;;;;;;5114664;28;20449;-81
2023/12/03 07:23:38;;;;;;;13.97;8.90;;;2.40;13.00;;;;;;5116682;28;20464;-81
2023/12/03 07:26:09;;;;;;;14.63;9.50;;;2.40;23.70;;;;;;5116646;28;20491;-81
2023/12/03 07:28:39;;;;;;;16.93;9.20;;;2.50;16.00;;;;;;5108925;28;20478;-81
2023/12/03 07:31:07;;;;;;;15.23;9.23;;;2.50;9.60;;;;;;5111871;28;20461;-81
2023/12/03 07:33:35;;;;;;;18.00;9.00;;;2.50;4.40;;;;;;5116532;28;20828;-82
2023/12/03 07:36:02;;;;;;;18.33;10.20;;;2.40;13.10;;;;;;5099283;28;20458;-81
2023/12/03 07:38:29;;;;;;;16.80;9.50;;;2.50;5.80;;;;;;5108340;28;20944;-82
2023/12/03 07:40:56;;;;;;;16.63;9.33;;;2.60;1.00;;;;;;5113564;28;20458;-81
2023/12/03 07:43:22;;;;;;;16.23;10.07;;;2.60;1.00;;;;;;5117874;28;20972;-83
2023/12/03 07:45:49;;;;;;;16.43;10.07;;;2.60;1.00;;;;;;5113107;28;20517;-82
2023/12/03 07:48:16;;;;;;;18.27;10.93;;;2.50;9.60;;;;;;5117798;28;20537;-82
2023/12/03 07:50:44;;;;;;;17.07;10.07;;;2.50;1.00;;;;;;5122202;28;20453;-81
2023/12/03 07:53:11;;;;;;;12.53;8.43;;;2.50;1.00;;;;;;5122835;28;20525;-83
2023/12/03 07:55:38;;;;;;;16.57;9.40;;;2.60;1.00;;;;;;5129380;28;20453;-82
2023/12/03 07:58:05;;;;;;;11.97;8.37;;;2.60;1.00;;;;;;5121295;28;20477;-83
2023/12/03 08:00:31;;;;;;;19.17;10.30;;;2.60;7.70;;;;;;5107977;28;20987;-82
2023/12/03 08:02:58;;;;;;;21.47;10.50;;;2.70;1.00;;;;;;5113667;28;20830;-83
2023/12/03 08:05:25;;;;;;;17.40;9.27;;;2.70;1.00;;;;;;5097026;28;20465;-83
2023/12/03 08:07:53;;;;;;;17.60;9.70;;;2.70;1.00;;;;;;5095072;28;20497;-82
2023/12/03 08:10:20;;;;;;;16.53;9.90;;;2.70;1.00;;;;;;5096805;28;20566;-83
2023/12/03 08:12:47;;;;;;;15.93;10.30;;;2.80;1.00;;;;;;5095734;28;20519;-83
2023/12/03 08:15:14;;;;;;;20.33;10.67;;;2.80;1.00;;;;;;5092666;28;20443;-80
2023/12/03 08:17:40;;;;;;;15.77;9.23;;;2.70;1.00;;;;;;5091288;28;20539;-80
2023/12/03 08:20:09;;;;;;;19.77;9.40;;;2.80;1.00;;;;;;5093426;28;21131;-81
2023/12/03 08:22:36;;;;;;;15.60;8.33;;;2.70;1.00;;;;;;5098099;28;20457;-81
2023/12/03 08:25:06;;;;;;;15.90;8.93;;;2.60;1.00;;;;;;5091140;28;20954;-82
2023/12/03 08:27:33;;;;;;;17.80;10.17;;;2.60;1.00;;;;;;5093612;28;20477;-79
2023/12/03 08:30:00;;;;;;;17.23;9.40;;;2.60;1.00;;;;;;5092139;28;20439;-82
2023/12/03 08:32:27;;;;;;;12.87;8.23;;;2.50;1.00;;;;;;5093837;28;20823;-81
2023/12/03 08:34:53;;;;;;;17.90;9.23;;;2.40;1.00;;;;;;5091776;28;20452;-81
2023/12/03 08:37:20;;;;;;;15.17;8.33;;;2.20;1.00;;;;;;5092359;28;20475;-82
2023/12/03 08:39:47;;;;;;;15.50;8.40;;;2.20;1.00;;;;;;5093412;28;20576;-81
2023/12/03 08:42:16;;;;;;;11.13;7.00;;;2.30;1.00;;;;;;5092280;28;20454;-82
2023/12/03 08:44:43;;;;;;;17.27;8.10;;;2.30;1.00;;;;;;5094945;28;20438;-81
2023/12/03 08:47:09;;;;;;;16.60;7.83;;;2.30;1.00;;;;;;5093637;28;20475;-81
2023/12/03 08:49:36;;;;;;;16.07;8.87;;;2.50;1.00;;;;;;5091115;28;20447;-82
2023/12/03 08:52:03;;;;;;;17.17;8.37;;;2.60;1.00;;;;;;5095178;28;20486;-81
2023/12/03 08:54:32;;;;;;;15.40;9.20;;;2.50;1.00;;;;;;5094980;28;20447;-81
2023/12/03 08:56:59;;;;;;;16.43;7.97;;;2.70;1.00;;;;;;5089950;28;20450;-81
2023/12/03 08:59:27;;;;;;;15.50;7.63;;;2.80;1.00;;;;;;5093544;28;20491;-80
2023/12/03 09:01:55;;;;;;;16.03;8.23;;;2.90;1.00;;;;;;5097128;28;20455;-78
2023/12/03 09:04:22;;;;;;;12.57;7.20;;;2.80;1.00;;;;;;5099890;28;20466;-79
2023/12/03 09:06:51;;;;;;;16.20;8.40;;;2.90;1.00;;;;;;5104957;28;20533;-80
2023/12/03 09:09:18;;;;;;;12.23;7.87;;;2.90;1.00;;;;;;5098795;28;20448;-80
2023/12/03 09:11:45;;;;;;;12.37;7.70;;;3.00;1.00;;;;;;5106501;28;20456;-80
2023/12/03 09:14:12;;;;;;;15.30;8.73;;;3.00;1.00;;;;;;5105546;28;20457;-81
2023/12/03 09:16:40;;;;;;;14.57;9.30;;;2.80;1.00;;;;;;5097957;28;20446;-79
2023/12/03 09:19:07;;;;;;;12.43;7.03;;;2.70;1.00;;;;;;5104404;28;20456;-79
2023/12/03 09:21:36;;;;;;;14.53;7.73;;;2.90;1.00;;;;;;5101375;28;20458;-80
2023/12/03 09:24:04;;;;;;;20.30;8.50;;;2.90;1.00;;;;;;5099645;28;20481;-81
2023/12/03 09:26:30;;;;;;;16.07;7.57;;;2.80;1.00;;;;;;5099883;28;20453;-81
2023/12/03 09:28:57;;;;;;;14.60;8.40;;;2.80;1.00;;;;;;5099983;28;20465;-81
2023/12/03 09:31:24;;;;;;;15.83;8.57;;;2.70;1.00;;;;;;5107772;28;20558;-81
2023/12/03 09:33:52;;;;;;;13.43;9.07;;;2.60;1.00;;;;;;5110970;28;20536;-81
2023/12/03 09:36:19;;;;;;;13.90;7.90;;;2.50;1.00;;;;;;5108598;28;20465;-80
2023/12/03 09:38:46;;;;;;;15.77;7.90;;;2.60;1.00;;;;;;5093505;28;20472;-82
2023/12/03 09:41:14;;;;;;;14.83;9.40;;;2.60;1.00;;;;;;5089170;28;20458;-81
2023/12/03 09:43:46;;;;;;;14.13;7.80;;;2.60;1.00;;;;;;5093391;28;20459;-81
2023/12/03 09:46:14;;;;;;;12.63;6.87;;;2.70;1.00;;;;;;5090804;28;20511;-81
2023/12/03 09:48:43;;;;;;;12.70;8.17;;;2.90;1.00;;;;;;5091081;28;20506;-79
2023/12/03 09:51:12;;;;;;;14.47;9.10;;;3.20;1.00;;;;;;5094644;28;20469;-82
2023/12/03 09:53:43;;;;;;;13.23;8.70;;;3.30;1.00;;;;;;5090215;28;20526;-81
2023/12/03 09:56:13;;;;;;;12.10;7.20;;;3.40;99.90;;;;;;5092172;28;20514;-82
2023/12/03 09:58:42;;;;;;;14.60;8.03;;;3.40;99.90;;;;;;5096056;28;20553;-80
2023/12/03 10:01:09;;;;;;;18.60;8.97;;;3.30;99.90;;;;;;5090065;28;20461;-83
2023/12/03 10:03:35;;;;;;;13.63;8.50;;;3.40;99.90;;;;;;5097608;28;20450;-82
2023/12/03 10:06:04;;;;;;;14.50;8.10;;;3.20;99.90;;;;;;5097336;28;20956;-83
2023/12/03 10:08:33;;;;;;;14.83;8.40;;;3.10;99.90;;;;;;5099618;28;20472;-82
2023/12/03 10:11:02;;;;;;;15.60;7.57;;;3.00;99.90;;;;;;5089426;28;20531;-83
2023/12/03 10:13:31;;;;;;;13.87;9.00;;;3.00;99.90;;;;;;5104353;28;20478;-83
2023/12/03 10:15:58;;;;;;;15.67;8.33;;;3.00;99.90;;;;;;5105458;28;21038;-83
2023/12/03 10:18:25;;;;;;;14.40;7.40;;;2.90;99.90;;;;;;5107004;28;20457;-82
2023/12/03 10:21:06;;;;;;;14.43;7.70;;;2.90;99.90;;;;;;5097758;28;21032;-80
2023/12/03 10:23:34;;;;;;;16.83;8.97;;;3.00;99.90;;;;;;5097694;28;20442;-83
2023/12/03 10:26:14;;;;;;;12.40;7.63;;;3.00;99.90;;;;;;5088808;28;20492;-82
2023/12/03 10:28:42;;;;;;;12.70;7.60;;;3.00;99.90;;;;;;5099990;28;20494;-83
2023/12/03 10:31:12;;;;;;;16.00;8.37;;;3.00;99.90;;;;;;5095983;28;20440;-82
2023/12/03 10:33:39;;;;;;;10.93;6.80;;;3.00;99.90;;;;;;5096060;28;20434;-82
2023/12/03 10:36:07;;;;;;;20.60;11.30;;;3.20;99.90;;;;;;5105282;28;20441;-82
2023/12/03 10:38:39;;;;;;;17.90;8.80;;;3.20;99.90;;;;;;5100795;28;20476;-83
2023/12/03 10:41:08;;;;;;;11.03;6.53;;;3.10;99.90;;;;;;5095695;28;20492;-82
2023/12/03 10:43:36;;;;;;;15.43;7.73;;;3.20;99.90;;;;;;5091897;28;20465;-81
2023/12/03 10:46:05;;;;;;;13.53;7.80;;;3.30;30.60;;;;;;5094908;28;20451;-82
2023/12/03 10:48:34;;;;;;;14.90;7.90;;;3.50;48.10;;;;;;5096045;28;20469;-83
2023/12/03 10:51:05;;;;;;;21.00;9.43;;;3.50;1.00;;;;;;5095738;28;20450;-83
2023/12/03 10:53:32;;;;;;;14.70;8.40;;;3.60;99.90;;;;;;5095343;28;20458;-82
2023/12/03 10:56:01;;;;;;;13.73;8.23;;;3.70;99.90;;;;;;5095877;28;20447;-82
2023/12/03 10:58:30;;;;;;;11.53;7.50;;;3.80;99.90;;;;;;5096077;28;20485;-82
2023/12/03 11:01:01;;;;;;;15.33;9.73;;;3.70;1.00;;;;;;5095569;28;20577;-82
2023/12/03 11:03:35;;;;;;;17.77;8.80;;;3.80;99.90;;;;;;5097715;28;20521;-82
2023/12/03 11:06:05;;;;;;;14.93;8.13;;;3.80;1.00;;;;;;5098410;28;20453;-83
2023/12/03 11:08:32;;;;;;;13.47;8.43;;;3.90;99.90;;;;;;5098231;28;20563;-82
2023/12/03 11:11:01;;;;;;;12.87;7.70;;;3.80;99.90;;;;;;5096085;28;20461;-83
2023/12/03 11:13:32;;;;;;;15.53;9.57;;;3.90;99.90;;;;;;5099165;28;20517;-81
2023/12/03 11:16:00;;;;;;;14.83;7.50;;;4.10;99.90;;;;;;5098789;28;20450;-83
2023/12/03 11:18:28;;;;;;;14.53;8.50;;;4.20;99.90;;;;;;5097589;28;20471;-83
2023/12/03 11:20:59;;;;;;;16.30;8.40;;;4.70;1.00;;;;;;5099231;28;20990;-83
2023/12/03 11:23:43;;;;;;;19.03;12.37;;;5.10;99.90;;;;;;5096336;28;20441;-82
2023/12/03 11:26:13;;;;;;;15.70;9.10;;;6.10;1.00;;;;;;5092559;28;20449;-81
2023/12/03 11:28:51;;;;;;;16.17;8.70;;;7.10;99.90;;;;;;5096823;28;20484;-80
2023/12/03 11:31:18;;;;;;;17.07;9.13;;;7.90;59.70;;;;;;5098732;28;20500;-83
2023/12/03 11:33:51;;;;;;;14.90;8.90;;;8.20;99.90;;;;;;5093757;28;20450;-82
2023/12/03 11:36:17;;;;;;;15.50;7.70;;;8.60;99.90;;;;;;5098328;28;20461;-83
2023/12/03 11:38:44;;;;;;;15.60;8.50;;;7.90;99.90;;;;;;5090544;28;20485;-82
2023/12/03 11:41:12;;;;;;;14.23;7.70;;;7.30;99.90;;;;;;5096040;28;20486;-82
2023/12/03 11:43:39;;;;;;;15.10;9.50;;;7.30;99.90;;;;;;5097921;28;20460;-83
2023/12/03 11:46:06;;;;;;;15.40;7.73;;;7.00;99.90;;;;;;5099322;28;20985;-83
2023/12/03 11:48:36;;;;;;;13.30;8.57;;;6.60;99.90;;;;;;5092254;28;20478;-81
2023/12/03 11:51:04;;;;;;;13.33;8.37;;;6.50;99.90;;;;;;5087675;28;20446;-82
2023/12/03 11:53:42;;;;;;;16.17;9.57;;;6.20;99.90;;;;;;5097859;28;20469;-83
2023/12/03 11:56:10;;;;;;;12.93;8.03;;;5.80;99.90;;;;;;5096547;28;20514;-81
2023/12/03 11:58:38;;;;;;;14.27;7.70;;;6.10;99.90;;;;;;5093254;28;20552;-80
2023/12/03 12:01:05;;;;;;;15.00;9.63;;;5.90;99.90;;;;;;5098474;28;20496;-82
2023/12/03 12:03:32;;;;;;;17.23;8.20;;;6.30;99.90;;;;;;5093362;28;20528;-83
2023/12/03 12:05:59;;;;;;;13.97;7.50;;;6.70;99.90;;;;;;5094615;28;21008;-83
2023/12/03 12:08:25;;;;;;;19.43;9.93;;;6.80;99.90;;;;;;5096297;28;20473;-83
2023/12/03 12:10:53;;;;;;;14.10;8.03;;;6.80;99.90;;;;;;5095264;28;20449;-83
2023/12/03 12:13:20;;;;;;;14.37;9.40;;;6.50;99.90;;;;;;5089995;28;20454;-83
2023/12/03 12:15:48;;;;;;;16.93;9.47;;;6.10;99.90;;;;;;5105601;28;20549;-83
2023/12/03 12:18:19;;;;;;;13.57;8.70;;;6.20;99.90;;;;;;5104888;28;20476;-83
2023/12/03 12:20:45;;;;;;;15.03;9.40;;;6.20;99.90;;;;;;5108527;28;20487;-82
2023/12/03 12:23:12;;;;;;;16.40;8.73;;;6.20;99.90;;;;;;5106579;28;20465;-82
2023/12/03 12:25:39;;;;;;;14.87;8.00;;;6.10;99.90;;;;;;5097597;28;20452;-83
2023/12/03 12:28:06;;;;;;;15.27;8.43;;;6.00;99.90;;;;;;5097906;28;20478;-82
2023/12/03 12:30:33;;;;;;;14.53;8.30;;;5.70;99.90;;;;;;5098054;28;20691;-83
2023/12/03 12:33:03;;;;;;;16.23;8.10;;;5.90;99.90;;;;;;5097009;28;20460;-82
2023/12/03 12:35:32;;;;;;;16.00;9.00;;;6.40;99.90;;;;;;5108152;28;20858;-83
2023/12/03 12:38:00;;;;;;;16.37;9.97;;;6.60;99.90;;;;;;5092167;28;20484;-81
2023/12/03 12:40:27;;;;;;;13.87;8.07;;;7.40;99.90;;;;;;5093183;28;20492;-83
2023/12/03 12:43:05;;;;;;;15.93;9.13;;;8.40;99.90;;;;;;5097222;28;20447;-82
2023/12/03 12:45:32;;;;;;;11.90;8.10;;;8.70;99.90;;;;;;5097586;28;20445;-83